sensor_id;sensor_type;location;lat;lon;timestamp;temperature;humidity
53752;DHT22;41095;53.090;6.692;2023-04-03T00:02:07;3.20;99.90
53752;DHT22;41095;53.090;6.692;2023-04-03T00:04:33;3.20;99.90
53752;DHT22;41095;53.090;6.692;2023-04-03T00:06:59;3.70;99.90
53752;DHT22;41095;53.090;6.692;2023-04-03T00:09:24;3.30;99.90
53752;DHT22;41095;53.090;6.692;2023-04-03T00:11:50;3.10;99.90
53752;DHT22;41095;53.090;6.692;2023-04-03T00:14:16;3.30;99.90
53752;DHT22;41095;53.090;6.692;2023-04-03T00:16:42;3.10;99.90
53752;DHT22;41095;53.090;6.692;2023-04-03T00:19:08;3.00;99.90
53752;DHT22;41095;53.090;6.692;2023-04-03T00:21:33;3.00;99.90
53752;DHT22;41095;53.090;6.692;2023-04-03T00:23:59;2.90;99.90
53752;DHT22;41095;53.090;6.692;2023-04-03T00:26:25;2.90;99.90
53752;DHT22;41095;53.090;6.692;2023-04-03T00:28:51;2.90;99.90
53752;DHT22;41095;53.090;6.692;2023-04-03T00:31:17;2.80;99.90
53752;DHT22;41095;53.090;6.692;2023-04-03T00:33:42;3.00;99.90
53752;DHT22;41095;53.090;6.692;2023-04-03T00:36:09;2.90;99.90
53752;DHT22;41095;53.090;6.692;2023-04-03T00:38:36;2.70;99.90
53752;DHT22;41095;53.090;6.692;2023-04-03T00:41:02;2.70;99.90
53752;DHT22;41095;53.090;6.692;2023-04-03T00:43:28;2.70;99.90
53752;DHT22;41095;53.090;6.692;2023-04-03T00:45:58;2.60;99.90
53752;DHT22;41095;53.090;6.692;2023-04-03T00:48:41;2.50;99.90
53752;DHT22;41095;53.090;6.692;2023-04-03T00:51:12;2.50;99.90
53752;DHT22;41095;53.090;6.692;2023-04-03T00:53:41;2.80;99.90
53752;DHT22;41095;53.090;6.692;2023-04-03T00:56:11;2.50;99.90
53752;DHT22;41095;53.090;6.692;2023-04-03T00:58:46;2.50;99.90
53752;DHT22;41095;53.090;6.692;2023-04-03T01:01:18;2.50;99.90
53752;DHT22;41095;53.090;6.692;2023-04-03T01:03:45;2.50;99.90
53752;DHT22;41095;53.090;6.692;2023-04-03T01:06:13;2.50;99.90
53752;DHT22;41095;53.090;6.692;2023-04-03T01:08:39;2.50;99.90
53752;DHT22;41095;53.090;6.692;2023-04-03T01:11:05;2.80;99.90
53752;DHT22;41095;53.090;6.692;2023-04-03T01:13:32;2.50;99.90
53752;DHT22;41095;53.090;6.692;2023-04-03T01:16:04;2.50;99.90
53752;DHT22;41095;53.090;6.692;2023-04-03T01:18:31;2.50;99.90
53752;DHT22;41095;53.090;6.692;2023-04-03T01:24:27;2.40;99.90
53752;DHT22;41095;53.090;6.692;2023-04-03T01:26:55;2.30;99.90
53752;DHT22;41095;53.090;6.692;2023-04-03T01:29:21;2.60;99.90
53752;DHT22;41095;53.090;6.692;2023-04-03T01:31:50;2.20;99.90
53752;DHT22;41095;53.090;6.692;2023-04-03T01:34:16;2.20;99.90
53752;DHT22;41095;53.090;6.692;2023-04-03T01:36:42;2.30;99.90
53752;DHT22;41095;53.090;6.692;2023-04-03T01:39:08;2.40;99.90
53752;DHT22;41095;53.090;6.692;2023-04-03T01:41:34;2.30;99.90
53752;DHT22;41095;53.090;6.692;2023-04-03T01:43:59;2.30;99.90
53752;DHT22;41095;53.090;6.692;2023-04-03T01:46:25;2.30;99.90
53752;DHT22;41095;53.090;6.692;2023-04-03T01:48:51;2.30;99.90
53752;DHT22;41095;53.090;6.692;2023-04-03T01:51:17;2.30;99.90
53752;DHT22;41095;53.090;6.692;2023-04-03T01:53:42;2.30;99.90
53752;DHT22;41095;53.090;6.692;2023-04-03T01:56:08;2.30;99.90
53752;DHT22;41095;53.090;6.692;2023-04-03T01:58:34;2.30;99.90
53752;DHT22;41095;53.090;6.692;2023-04-03T02:01:00;2.40;99.90
53752;DHT22;41095;53.090;6.692;2023-04-03T02:03:25;2.50;99.90
53752;DHT22;41095;53.090;6.692;2023-04-03T02:05:51;2.30;99.90
53752;DHT22;41095;53.090;6.692;2023-04-03T02:08:17;2.30;99.90
53752;DHT22;41095;53.090;6.692;2023-04-03T02:10:49;2.30;99.90
53752;DHT22;41095;53.090;6.692;2023-04-03T02:13:16;2.90;99.90
53752;DHT22;41095;53.090;6.692;2023-04-03T02:15:42;2.30;99.90
53752;DHT22;41095;53.090;6.692;2023-04-03T02:18:08;2.30;99.90
53752;DHT22;41095;53.090;6.692;2023-04-03T02:20:34;3.00;99.90
53752;DHT22;41095;53.090;6.692;2023-04-03T02:23:00;2.30;99.90
53752;DHT22;41095;53.090;6.692;2023-04-03T02:25:25;2.60;99.90
53752;DHT22;41095;53.090;6.692;2023-04-03T02:27:51;2.00;99.90
53752;DHT22;41095;53.090;6.692;2023-04-03T02:30:17;1.80;99.90
53752;DHT22;41095;53.090;6.692;2023-04-03T02:32:43;1.70;99.90
53752;DHT22;41095;53.090;6.692;2023-04-03T02:35:10;2.30;99.90
53752;DHT22;41095;53.090;6.692;2023-04-03T02:37:36;1.80;99.90
53752;DHT22;41095;53.090;6.692;2023-04-03T02:40:03;2.40;99.90
53752;DHT22;41095;53.090;6.692;2023-04-03T02:42:29;1.90;99.90
53752;DHT22;41095;53.090;6.692;2023-04-03T02:44:55;3.00;99.90
53752;DHT22;41095;53.090;6.692;2023-04-03T02:47:20;2.00;99.90
53752;DHT22;41095;53.090;6.692;2023-04-03T02:49:46;2.00;99.90
53752;DHT22;41095;53.090;6.692;2023-04-03T02:52:13;2.30;99.90
53752;DHT22;41095;53.090;6.692;2023-04-03T02:54:39;2.20;99.90
53752;DHT22;41095;53.090;6.692;2023-04-03T02:57:05;1.90;99.90
53752;DHT22;41095;53.090;6.692;2023-04-03T02:59:33;1.90;99.90
53752;DHT22;41095;53.090;6.692;2023-04-03T03:01:59;1.80;99.90
53752;DHT22;41095;53.090;6.692;2023-04-03T03:04:24;1.80;99.90
53752;DHT22;41095;53.090;6.692;2023-04-03T03:06:50;2.00;99.90
53752;DHT22;41095;53.090;6.692;2023-04-03T03:09:16;1.80;99.90
53752;DHT22;41095;53.090;6.692;2023-04-03T03:11:42;1.80;99.90
53752;DHT22;41095;53.090;6.692;2023-04-03T03:14:07;1.80;99.90
53752;DHT22;41095;53.090;6.692;2023-04-03T03:16:33;1.80;99.90
53752;DHT22;41095;53.090;6.692;2023-04-03T03:18:59;1.70;99.90
53752;DHT22;41095;53.090;6.692;2023-04-03T03:21:25;1.70;99.90
53752;DHT22;41095;53.090;6.692;2023-04-03T03:23:51;2.00;99.90
53752;DHT22;41095;53.090;6.692;2023-04-03T03:26:17;2.20;99.90
53752;DHT22;41095;53.090;6.692;2023-04-03T03:28:42;1.60;99.90
53752;DHT22;41095;53.090;6.692;2023-04-03T03:31:09;1.50;99.90
53752;DHT22;41095;53.090;6.692;2023-04-03T03:33:35;1.40;99.90
53752;DHT22;41095;53.090;6.692;2023-04-03T03:36:01;1.30;99.90
53752;DHT22;41095;53.090;6.692;2023-04-03T03:38:27;1.50;99.90
53752;DHT22;41095;53.090;6.692;2023-04-03T03:40:52;1.10;99.90
53752;DHT22;41095;53.090;6.692;2023-04-03T03:43:18;1.10;99.90
53752;DHT22;41095;53.090;6.692;2023-04-03T03:45:44;1.10;99.90
53752;DHT22;41095;53.090;6.692;2023-04-03T03:48:11;1.10;99.90
53752;DHT22;41095;53.090;6.692;2023-04-03T03:50:37;1.10;99.90
53752;DHT22;41095;53.090;6.692;2023-04-03T03:53:03;1.00;99.90
53752;DHT22;41095;53.090;6.692;2023-04-03T03:55:28;1.00;99.90
53752;DHT22;41095;53.090;6.692;2023-04-03T03:57:54;1.10;99.90
53752;DHT22;41095;53.090;6.692;2023-04-03T04:00:20;1.00;99.90
53752;DHT22;41095;53.090;6.692;2023-04-03T04:02:45;1.00;99.90
53752;DHT22;41095;53.090;6.692;2023-04-03T04:05:12;1.10;99.90
53752;DHT22;41095;53.090;6.692;2023-04-03T04:07:37;1.10;99.90
53752;DHT22;41095;53.090;6.692;2023-04-03T04:10:04;1.10;99.90
53752;DHT22;41095;53.090;6.692;2023-04-03T04:12:29;1.00;99.90
53752;DHT22;41095;53.090;6.692;2023-04-03T04:14:55;1.00;99.90
53752;DHT22;41095;53.090;6.692;2023-04-03T04:17:21;1.10;99.90
53752;DHT22;41095;53.090;6.692;2023-04-03T04:19:47;0.80;99.90
53752;DHT22;41095;53.090;6.692;2023-04-03T04:22:12;1.30;99.90
53752;DHT22;41095;53.090;6.692;2023-04-03T04:24:38;1.80;99.90
53752;DHT22;41095;53.090;6.692;2023-04-03T04:27:04;0.80;99.90
53752;DHT22;41095;53.090;6.692;2023-04-03T04:29:30;0.80;99.90
53752;DHT22;41095;53.090;6.692;2023-04-03T04:32:00;0.80;99.90
53752;DHT22;41095;53.090;6.692;2023-04-03T04:34:26;1.30;99.90
53752;DHT22;41095;53.090;6.692;2023-04-03T04:36:52;0.80;99.90
53752;DHT22;41095;53.090;6.692;2023-04-03T04:39:17;0.80;99.90
53752;DHT22;41095;53.090;6.692;2023-04-03T04:41:43;0.80;99.90
53752;DHT22;41095;53.090;6.692;2023-04-03T04:44:09;0.90;99.90
53752;DHT22;41095;53.090;6.692;2023-04-03T04:46:35;0.90;99.90
53752;DHT22;41095;53.090;6.692;2023-04-03T04:49:01;0.80;99.90
53752;DHT22;41095;53.090;6.692;2023-04-03T04:51:26;1.00;99.90
53752;DHT22;41095;53.090;6.692;2023-04-03T04:53:52;0.80;99.90
53752;DHT22;41095;53.090;6.692;2023-04-03T04:56:17;2.00;99.90
53752;DHT22;41095;53.090;6.692;2023-04-03T04:58:43;0.90;99.90
53752;DHT22;41095;53.090;6.692;2023-04-03T05:01:10;0.70;99.90
53752;DHT22;41095;53.090;6.692;2023-04-03T05:03:36;0.70;99.90
53752;DHT22;41095;53.090;6.692;2023-04-03T05:06:02;0.70;99.90
53752;DHT22;41095;53.090;6.692;2023-04-03T05:08:28;0.70;99.90
53752;DHT22;41095;53.090;6.692;2023-04-03T05:10:54;0.70;99.90
53752;DHT22;41095;53.090;6.692;2023-04-03T05:13:20;0.90;99.90
53752;DHT22;41095;53.090;6.692;2023-04-03T05:15:46;0.80;99.90
53752;DHT22;41095;53.090;6.692;2023-04-03T05:18:12;0.80;99.90
53752;DHT22;41095;53.090;6.692;2023-04-03T05:20:37;0.70;99.90
53752;DHT22;41095;53.090;6.692;2023-04-03T05:23:03;1.30;99.90
53752;DHT22;41095;53.090;6.692;2023-04-03T05:25:29;0.60;99.90
53752;DHT22;41095;53.090;6.692;2023-04-03T05:27:55;0.60;99.90
53752;DHT22;41095;53.090;6.692;2023-04-03T05:30:21;1.00;99.90
53752;DHT22;41095;53.090;6.692;2023-04-03T05:32:47;2.20;99.90
53752;DHT22;41095;53.090;6.692;2023-04-03T05:35:13;0.80;99.90
53752;DHT22;41095;53.090;6.692;2023-04-03T05:37:39;0.80;99.90
53752;DHT22;41095;53.090;6.692;2023-04-03T05:40:05;-0.10;99.90
53752;DHT22;41095;53.090;6.692;2023-04-03T05:42:31;0.80;99.90
53752;DHT22;41095;53.090;6.692;2023-04-03T05:44:57;0.80;99.90
53752;DHT22;41095;53.090;6.692;2023-04-03T05:47:23;0.80;99.90
53752;DHT22;41095;53.090;6.692;2023-04-03T05:49:49;0.80;99.90
53752;DHT22;41095;53.090;6.692;2023-04-03T05:52:20;0.90;99.90
53752;DHT22;41095;53.090;6.692;2023-04-03T05:54:46;1.50;99.90
53752;DHT22;41095;53.090;6.692;2023-04-03T05:57:14;1.20;99.90
53752;DHT22;41095;53.090;6.692;2023-04-03T05:59:42;1.00;99.90
53752;DHT22;41095;53.090;6.692;2023-04-03T06:02:11;1.10;99.90
53752;DHT22;41095;53.090;6.692;2023-04-03T06:04:37;1.10;99.90
53752;DHT22;41095;53.090;6.692;2023-04-03T06:07:03;1.10;99.90
53752;DHT22;41095;53.090;6.692;2023-04-03T06:09:29;1.20;99.90
53752;DHT22;41095;53.090;6.692;2023-04-03T06:11:56;1.40;99.90
53752;DHT22;41095;53.090;6.692;2023-04-03T06:14:26;1.90;99.90
53752;DHT22;41095;53.090;6.692;2023-04-03T06:16:53;1.30;99.90
53752;DHT22;41095;53.090;6.692;2023-04-03T06:19:19;1.60;99.90
53752;DHT22;41095;53.090;6.692;2023-04-03T06:21:46;1.40;99.90
53752;DHT22;41095;53.090;6.692;2023-04-03T06:24:15;2.10;99.90
53752;DHT22;41095;53.090;6.692;2023-04-03T06:26:41;1.50;99.90
53752;DHT22;41095;53.090;6.692;2023-04-03T06:29:07;1.60;99.90
53752;DHT22;41095;53.090;6.692;2023-04-03T06:31:32;1.60;99.90
53752;DHT22;41095;53.090;6.692;2023-04-03T06:33:58;1.70;99.90
53752;DHT22;41095;53.090;6.692;2023-04-03T06:36:24;1.90;99.90
53752;DHT22;41095;53.090;6.692;2023-04-03T06:38:50;1.80;99.90
53752;DHT22;41095;53.090;6.692;2023-04-03T06:41:16;1.80;99.90
53752;DHT22;41095;53.090;6.692;2023-04-03T06:43:43;1.90;99.90
53752;DHT22;41095;53.090;6.692;2023-04-03T06:46:14;2.00;99.90
53752;DHT22;41095;53.090;6.692;2023-04-03T06:48:40;2.60;99.90
53752;DHT22;41095;53.090;6.692;2023-04-03T06:51:22;2.20;99.90
53752;DHT22;41095;53.090;6.692;2023-04-03T06:53:51;2.20;99.90
53752;DHT22;41095;53.090;6.692;2023-04-03T06:56:18;2.30;99.90
53752;DHT22;41095;53.090;6.692;2023-04-03T06:58:45;2.40;99.90
53752;DHT22;41095;53.090;6.692;2023-04-03T07:01:13;2.90;99.90
53752;DHT22;41095;53.090;6.692;2023-04-03T07:03:39;2.60;99.90
53752;DHT22;41095;53.090;6.692;2023-04-03T07:06:06;2.70;99.90
53752;DHT22;41095;53.090;6.692;2023-04-03T07:08:33;3.30;99.90
53752;DHT22;41095;53.090;6.692;2023-04-03T07:10:59;2.90;99.90
53752;DHT22;41095;53.090;6.692;2023-04-03T07:13:25;3.00;99.90
53752;DHT22;41095;53.090;6.692;2023-04-03T07:15:51;3.10;99.90
53752;DHT22;41095;53.090;6.692;2023-04-03T07:18:16;3.20;99.90
53752;DHT22;41095;53.090;6.692;2023-04-03T07:20:42;3.50;99.90
53752;DHT22;41095;53.090;6.692;2023-04-03T07:23:08;3.50;99.90
53752;DHT22;41095;53.090;6.692;2023-04-03T07:25:34;3.60;99.90
53752;DHT22;41095;53.090;6.692;2023-04-03T07:28:00;3.90;99.90
53752;DHT22;41095;53.090;6.692;2023-04-03T07:30:26;4.10;99.90
53752;DHT22;41095;53.090;6.692;2023-04-03T07:32:52;4.70;99.90
53752;DHT22;41095;53.090;6.692;2023-04-03T07:35:17;6.40;99.90
53752;DHT22;41095;53.090;6.692;2023-04-03T07:37:43;8.20;99.90
53752;DHT22;41095;53.090;6.692;2023-04-03T07:40:11;9.20;99.90
53752;DHT22;41095;53.090;6.692;2023-04-03T07:42:36;10.00;99.90
53752;DHT22;41095;53.090;6.692;2023-04-03T07:45:05;11.10;99.90
53752;DHT22;41095;53.090;6.692;2023-04-03T07:47:31;11.50;99.90
53752;DHT22;41095;53.090;6.692;2023-04-03T07:49:57;11.90;99.90
53752;DHT22;41095;53.090;6.692;2023-04-03T07:52:23;12.30;99.90
53752;DHT22;41095;53.090;6.692;2023-04-03T07:54:49;12.50;99.90
53752;DHT22;41095;53.090;6.692;2023-04-03T07:57:15;12.40;98.60
53752;DHT22;41095;53.090;6.692;2023-04-03T07:59:42;12.30;97.10
53752;DHT22;41095;53.090;6.692;2023-04-03T08:02:12;12.70;98.10
53752;DHT22;41095;53.090;6.692;2023-04-03T08:04:38;13.30;98.00
53752;DHT22;41095;53.090;6.692;2023-04-03T08:07:04;13.30;97.00
53752;DHT22;41095;53.090;6.692;2023-04-03T08:09:30;13.50;95.70
53752;DHT22;41095;53.090;6.692;2023-04-03T08:11:57;13.60;95.30
53752;DHT22;41095;53.090;6.692;2023-04-03T08:14:23;13.60;94.30
53752;DHT22;41095;53.090;6.692;2023-04-03T08:16:48;13.60;94.90
53752;DHT22;41095;53.090;6.692;2023-04-03T08:19:15;13.60;94.40
53752;DHT22;41095;53.090;6.692;2023-04-03T08:21:42;14.00;94.40
53752;DHT22;41095;53.090;6.692;2023-04-03T08:24:08;14.10;93.80
53752;DHT22;41095;53.090;6.692;2023-04-03T08:26:34;14.20;92.40
53752;DHT22;41095;53.090;6.692;2023-04-03T08:29:01;14.20;92.60
53752;DHT22;41095;53.090;6.692;2023-04-03T08:31:27;14.10;92.10
53752;DHT22;41095;53.090;6.692;2023-04-03T08:33:53;14.00;92.00
53752;DHT22;41095;53.090;6.692;2023-04-03T08:36:27;14.10;91.00
53752;DHT22;41095;53.090;6.692;2023-04-03T08:38:54;13.90;89.80
53752;DHT22;41095;53.090;6.692;2023-04-03T08:41:25;13.90;90.10
53752;DHT22;41095;53.090;6.692;2023-04-03T08:44:02;13.90;89.30
53752;DHT22;41095;53.090;6.692;2023-04-03T08:49:28;14.40;90.00
53752;DHT22;41095;53.090;6.692;2023-04-03T08:51:56;14.60;90.10
53752;DHT22;41095;53.090;6.692;2023-04-03T08:54:56;14.80;88.40
53752;DHT22;41095;53.090;6.692;2023-04-03T08:57:33;14.50;81.90
53752;DHT22;41095;53.090;6.692;2023-04-03T09:00:15;14.70;84.60
53752;DHT22;41095;53.090;6.692;2023-04-03T09:02:50;14.70;86.30
53752;DHT22;41095;53.090;6.692;2023-04-03T09:05:20;14.80;87.50
53752;DHT22;41095;53.090;6.692;2023-04-03T09:11:20;15.00;81.50
53752;DHT22;41095;53.090;6.692;2023-04-03T09:14:23;14.90;83.10
53752;DHT22;41095;53.090;6.692;2023-04-03T09:16:59;14.90;84.30
53752;DHT22;41095;53.090;6.692;2023-04-03T09:19:38;14.80;85.20
53752;DHT22;41095;53.090;6.692;2023-04-03T09:22:25;15.10;85.40
53752;DHT22;41095;53.090;6.692;2023-04-03T09:27:26;15.40;83.40
53752;DHT22;41095;53.090;6.692;2023-04-03T09:29:54;15.30;83.10
53752;DHT22;41095;53.090;6.692;2023-04-03T09:34:52;15.00;82.50
53752;DHT22;41095;53.090;6.692;2023-04-03T09:37:41;15.20;79.70
53752;DHT22;41095;53.090;6.692;2023-04-03T09:42:53;15.00;73.60
53752;DHT22;41095;53.090;6.692;2023-04-03T09:45:33;15.00;74.30
53752;DHT22;41095;53.090;6.692;2023-04-03T09:48:07;14.80;71.50
53752;DHT22;41095;53.090;6.692;2023-04-03T09:50:35;14.80;73.60
53752;DHT22;41095;53.090;6.692;2023-04-03T09:53:06;15.00;76.50
53752;DHT22;41095;53.090;6.692;2023-04-03T09:55:33;15.20;75.60
53752;DHT22;41095;53.090;6.692;2023-04-03T09:58:32;15.20;76.80
53752;DHT22;41095;53.090;6.692;2023-04-03T10:01:01;15.30;74.20
53752;DHT22;41095;53.090;6.692;2023-04-03T10:03:30;15.20;77.30
53752;DHT22;41095;53.090;6.692;2023-04-03T10:05:56;15.40;76.80
53752;DHT22;41095;53.090;6.692;2023-04-03T10:08:27;15.70;75.10
53752;DHT22;41095;53.090;6.692;2023-04-03T10:11:12;15.90;76.40
53752;DHT22;41095;53.090;6.692;2023-04-03T10:13:59;15.70;68.40
53752;DHT22;41095;53.090;6.692;2023-04-03T10:16:38;15.50;69.10
53752;DHT22;41095;53.090;6.692;2023-04-03T10:26:57;14.90;71.00
53752;DHT22;41095;53.090;6.692;2023-04-03T10:40:45;16.60;73.10
53752;DHT22;41095;53.090;6.692;2023-04-03T10:43:36;17.00;69.70
53752;DHT22;41095;53.090;6.692;2023-04-03T10:49:06;15.20;65.90
53752;DHT22;41095;53.090;6.692;2023-04-03T10:51:45;13.90;61.80
53752;DHT22;41095;53.090;6.692;2023-04-03T10:54:25;13.80;69.40
53752;DHT22;41095;53.090;6.692;2023-04-03T10:57:01;13.10;68.80
53752;DHT22;41095;53.090;6.692;2023-04-03T10:59:52;11.80;69.60
53752;DHT22;41095;53.090;6.692;2023-04-03T11:02:29;11.40;69.70
53752;DHT22;41095;53.090;6.692;2023-04-03T11:07:56;10.60;65.70
53752;DHT22;41095;53.090;6.692;2023-04-03T11:10:40;10.40;69.10
53752;DHT22;41095;53.090;6.692;2023-04-03T11:13:33;10.20;66.20
53752;DHT22;41095;53.090;6.692;2023-04-03T11:16:02;10.10;65.90
53752;DHT22;41095;53.090;6.692;2023-04-03T11:18:37;9.70;65.10
53752;DHT22;41095;53.090;6.692;2023-04-03T11:21:23;9.60;67.40
53752;DHT22;41095;53.090;6.692;2023-04-03T11:23:53;9.40;64.50
53752;DHT22;41095;53.090;6.692;2023-04-03T11:26:24;9.50;70.10
53752;DHT22;41095;53.090;6.692;2023-04-03T11:29:05;9.60;70.20
53752;DHT22;41095;53.090;6.692;2023-04-03T11:32:01;9.70;67.80
53752;DHT22;41095;53.090;6.692;2023-04-03T11:34:33;9.80;68.90
53752;DHT22;41095;53.090;6.692;2023-04-03T11:37:05;9.90;68.70
53752;DHT22;41095;53.090;6.692;2023-04-03T11:39:38;9.90;69.70
53752;DHT22;41095;53.090;6.692;2023-04-03T11:42:15;9.90;70.20
53752;DHT22;41095;53.090;6.692;2023-04-03T11:44:41;9.90;69.60
53752;DHT22;41095;53.090;6.692;2023-04-03T11:47:11;9.90;69.00
53752;DHT22;41095;53.090;6.692;2023-04-03T11:49:57;9.90;68.70
53752;DHT22;41095;53.090;6.692;2023-04-03T11:58:03;9.90;67.20
53752;DHT22;41095;53.090;6.692;2023-04-03T12:14:04;10.00;71.30
53752;DHT22;41095;53.090;6.692;2023-04-03T12:19:27;10.20;69.00
53752;DHT22;41095;53.090;6.692;2023-04-03T12:24:31;10.20;69.00
53752;DHT22;41095;53.090;6.692;2023-04-03T12:45:25;10.20;67.60
53752;DHT22;41095;53.090;6.692;2023-04-03T12:47:54;10.30;68.10
53752;DHT22;41095;53.090;6.692;2023-04-03T12:50:31;10.10;69.20
53752;DHT22;41095;53.090;6.692;2023-04-03T12:55:30;10.10;69.50
53752;DHT22;41095;53.090;6.692;2023-04-03T12:57:56;10.00;69.60
53752;DHT22;41095;53.090;6.692;2023-04-03T13:00:40;10.00;71.10
53752;DHT22;41095;53.090;6.692;2023-04-03T13:03:06;9.90;69.20
53752;DHT22;41095;53.090;6.692;2023-04-03T13:05:33;9.80;68.40
53752;DHT22;41095;53.090;6.692;2023-04-03T13:08:05;9.70;70.50
53752;DHT22;41095;53.090;6.692;2023-04-03T13:10:51;9.80;68.10
53752;DHT22;41095;53.090;6.692;2023-04-03T13:13:17;9.90;70.60
53752;DHT22;41095;53.090;6.692;2023-04-03T13:15:46;9.90;68.80
53752;DHT22;41095;53.090;6.692;2023-04-03T13:18:30;10.10;71.40
53752;DHT22;41095;53.090;6.692;2023-04-03T13:21:00;10.30;70.20
53752;DHT22;41095;53.090;6.692;2023-04-03T13:23:27;10.40;69.80
53752;DHT22;41095;53.090;6.692;2023-04-03T13:25:53;10.20;69.40
53752;DHT22;41095;53.090;6.692;2023-04-03T13:28:23;10.30;70.20
53752;DHT22;41095;53.090;6.692;2023-04-03T13:31:19;10.30;68.50
53752;DHT22;41095;53.090;6.692;2023-04-03T13:33:59;10.30;68.90
53752;DHT22;41095;53.090;6.692;2023-04-03T13:36:44;10.20;69.10
53752;DHT22;41095;53.090;6.692;2023-04-03T13:41:41;10.10;69.80
53752;DHT22;41095;53.090;6.692;2023-04-03T13:46:49;10.20;69.70
53752;DHT22;41095;53.090;6.692;2023-04-03T13:49:35;10.00;67.20
53752;DHT22;41095;53.090;6.692;2023-04-03T13:52:49;9.90;66.30
53752;DHT22;41095;53.090;6.692;2023-04-03T13:54:59;10.10;71.80
53752;DHT22;41095;53.090;6.692;2023-04-03T13:57:26;10.40;70.40
53752;DHT22;41095;53.090;6.692;2023-04-03T13:59:52;10.60;70.80
53752;DHT22;41095;53.090;6.692;2023-04-03T14:02:33;10.60;71.70
53752;DHT22;41095;53.090;6.692;2023-04-03T14:05:00;10.60;69.90
53752;DHT22;41095;53.090;6.692;2023-04-03T14:07:29;10.60;72.10
53752;DHT22;41095;53.090;6.692;2023-04-03T14:09:55;10.40;69.80
53752;DHT22;41095;53.090;6.692;2023-04-03T14:12:31;10.40;69.30
53752;DHT22;41095;53.090;6.692;2023-04-03T14:15:02;10.30;70.10
53752;DHT22;41095;53.090;6.692;2023-04-03T14:17:29;10.20;70.80
53752;DHT22;41095;53.090;6.692;2023-04-03T14:19:56;10.30;72.00
53752;DHT22;41095;53.090;6.692;2023-04-03T14:22:32;10.20;70.40
53752;DHT22;41095;53.090;6.692;2023-04-03T14:25:00;10.30;72.20
53752;DHT22;41095;53.090;6.692;2023-04-03T14:27:28;10.20;69.20
53752;DHT22;41095;53.090;6.692;2023-04-03T14:29:56;10.40;71.80
53752;DHT22;41095;53.090;6.692;2023-04-03T14:32:24;10.40;71.20
53752;DHT22;41095;53.090;6.692;2023-04-03T14:34:51;10.50;72.30
53752;DHT22;41095;53.090;6.692;2023-04-03T14:37:23;10.60;72.10
53752;DHT22;41095;53.090;6.692;2023-04-03T14:39:51;10.30;69.40
53752;DHT22;41095;53.090;6.692;2023-04-03T14:42:21;10.10;68.50
53752;DHT22;41095;53.090;6.692;2023-04-03T14:44:48;9.80;66.90
53752;DHT22;41095;53.090;6.692;2023-04-03T14:47:16;9.90;70.80
53752;DHT22;41095;53.090;6.692;2023-04-03T14:49:42;9.90;69.30
53752;DHT22;41095;53.090;6.692;2023-04-03T14:52:28;10.00;67.60
53752;DHT22;41095;53.090;6.692;2023-04-03T14:54:55;10.00;70.90
53752;DHT22;41095;53.090;6.692;2023-04-03T14:57:25;10.10;72.00
53752;DHT22;41095;53.090;6.692;2023-04-03T14:59:52;10.10;70.50
53752;DHT22;41095;53.090;6.692;2023-04-03T15:02:27;10.10;68.40
53752;DHT22;41095;53.090;6.692;2023-04-03T15:04:57;10.10;70.10
53752;DHT22;41095;53.090;6.692;2023-04-03T15:07:25;10.20;70.80
53752;DHT22;41095;53.090;6.692;2023-04-03T15:09:52;10.10;68.10
53752;DHT22;41095;53.090;6.692;2023-04-03T15:12:18;10.10;67.90
53752;DHT22;41095;53.090;6.692;2023-04-03T15:14:43;10.20;71.70
53752;DHT22;41095;53.090;6.692;2023-04-03T15:17:17;10.10;72.20
53752;DHT22;41095;53.090;6.692;2023-04-03T15:19:44;10.10;71.60
53752;DHT22;41095;53.090;6.692;2023-04-03T15:22:15;10.00;70.60
53752;DHT22;41095;53.090;6.692;2023-04-03T15:24:41;10.00;71.70
53752;DHT22;41095;53.090;6.692;2023-04-03T15:27:08;10.10;72.30
53752;DHT22;41095;53.090;6.692;2023-04-03T15:29:33;10.10;70.20
53752;DHT22;41095;53.090;6.692;2023-04-03T15:31:59;10.10;73.10
53752;DHT22;41095;53.090;6.692;2023-04-03T15:34:26;10.00;68.90
53752;DHT22;41095;53.090;6.692;2023-04-03T15:36:51;9.90;72.40
53752;DHT22;41095;53.090;6.692;2023-04-03T15:39:20;9.80;73.10
53752;DHT22;41095;53.090;6.692;2023-04-03T15:41:46;9.90;73.70
53752;DHT22;41095;53.090;6.692;2023-04-03T15:44:12;9.90;72.80
53752;DHT22;41095;53.090;6.692;2023-04-03T15:46:38;9.90;73.00
53752;DHT22;41095;53.090;6.692;2023-04-03T15:49:05;9.90;72.40
53752;DHT22;41095;53.090;6.692;2023-04-03T15:51:31;10.00;74.80
53752;DHT22;41095;53.090;6.692;2023-04-03T15:53:56;10.00;74.70
53752;DHT22;41095;53.090;6.692;2023-04-03T15:56:22;10.00;73.50
53752;DHT22;41095;53.090;6.692;2023-04-03T15:58:48;10.00;72.70
53752;DHT22;41095;53.090;6.692;2023-04-03T16:01:14;9.90;74.00
53752;DHT22;41095;53.090;6.692;2023-04-03T16:03:41;9.70;70.90
53752;DHT22;41095;53.090;6.692;2023-04-03T16:06:12;9.60;72.10
53752;DHT22;41095;53.090;6.692;2023-04-03T16:08:38;9.70;74.20
53752;DHT22;41095;53.090;6.692;2023-04-03T16:11:04;9.70;74.80
53752;DHT22;41095;53.090;6.692;2023-04-03T16:13:29;9.80;73.50
53752;DHT22;41095;53.090;6.692;2023-04-03T16:15:56;9.70;73.60
53752;DHT22;41095;53.090;6.692;2023-04-03T16:18:21;9.60;72.00
53752;DHT22;41095;53.090;6.692;2023-04-03T16:20:47;9.50;74.30
53752;DHT22;41095;53.090;6.692;2023-04-03T16:23:13;9.40;73.00
53752;DHT22;41095;53.090;6.692;2023-04-03T16:25:39;9.30;72.00
53752;DHT22;41095;53.090;6.692;2023-04-03T16:28:05;9.30;74.60
53752;DHT22;41095;53.090;6.692;2023-04-03T16:30:32;9.20;73.60
53752;DHT22;41095;53.090;6.692;2023-04-03T16:32:58;9.30;75.70
53752;DHT22;41095;53.090;6.692;2023-04-03T16:35:24;9.20;70.90
53752;DHT22;41095;53.090;6.692;2023-04-03T16:37:49;9.10;72.90
53752;DHT22;41095;53.090;6.692;2023-04-03T16:40:15;9.10;75.40
53752;DHT22;41095;53.090;6.692;2023-04-03T16:42:41;9.10;77.50
53752;DHT22;41095;53.090;6.692;2023-04-03T16:45:07;9.10;77.30
53752;DHT22;41095;53.090;6.692;2023-04-03T16:47:33;8.70;76.80
53752;DHT22;41095;53.090;6.692;2023-04-03T16:49:59;9.10;76.80
53752;DHT22;41095;53.090;6.692;2023-04-03T16:52:25;9.00;74.70
53752;DHT22;41095;53.090;6.692;2023-04-03T16:54:51;8.90;76.80
53752;DHT22;41095;53.090;6.692;2023-04-03T16:57:21;8.80;77.30
53752;DHT22;41095;53.090;6.692;2023-04-03T16:59:47;8.80;78.20
53752;DHT22;41095;53.090;6.692;2023-04-03T17:02:13;8.80;77.30
53752;DHT22;41095;53.090;6.692;2023-04-03T17:04:39;8.60;76.90
53752;DHT22;41095;53.090;6.692;2023-04-03T17:07:04;8.60;77.10
53752;DHT22;41095;53.090;6.692;2023-04-03T17:09:32;8.50;78.00
53752;DHT22;41095;53.090;6.692;2023-04-03T17:11:58;8.40;77.80
53752;DHT22;41095;53.090;6.692;2023-04-03T17:14:24;8.30;78.30
53752;DHT22;41095;53.090;6.692;2023-04-03T17:16:50;8.30;79.30
53752;DHT22;41095;53.090;6.692;2023-04-03T17:19:16;8.30;79.80
53752;DHT22;41095;53.090;6.692;2023-04-03T17:21:43;8.20;79.60
53752;DHT22;41095;53.090;6.692;2023-04-03T17:24:10;8.10;80.00